Time;durP1;ratioP1;P1;durP2;ratioP2;P2;SDS_P1;SDS_P2;PMS_P1;PMS_P2;Temp;Humidity;BMP_temperature;BMP_pressure;BME280_temperature;BME280_humidity;BME280_pressure;Samples;Min_cycle;Max_cycle;Signal;HPM_P1;HPM_P2
2023/03/02 00:02:28;;;;;;;13.13;6.47;;;;;;;4.33;47.49;100866.09;12898658;22;20457;-64
2023/03/02 00:07:33;;;;;;;16.60;6.30;;;;;;;4.34;47.82;100858.00;12900425;23;20028;-64
2023/03/02 00:12:35;;;;;;;19.42;8.00;;;;;;;4.33;47.28;100866.09;12899305;23;20258;-64
2023/03/02 00:17:36;;;;;;;19.17;7.32;;;;;;;4.33;47.86;100858.09;12899292;23;20017;-64
2023/03/02 00:22:39;;;;;;;16.92;7.18;;;;;;;4.29;47.63;100856.66;12903561;23;20055;-65
2023/03/02 00:27:41;;;;;;;16.33;7.75;;;;;;;4.27;48.29;100861.25;12902352;23;20082;-65
2023/03/02 00:32:44;;;;;;;16.48;7.55;;;;;;;4.31;47.61;100855.56;12904359;23;20027;-65
2023/03/02 00:37:45;;;;;;;17.23;7.93;;;;;;;4.24;47.93;100850.84;12901033;23;20046;-64
2023/03/02 00:42:47;;;;;;;17.13;7.57;;;;;;;4.27;48.05;100855.94;12904504;23;20094;-65
2023/03/02 00:47:48;;;;;;;16.05;8.07;;;;;;;4.23;48.23;100852.66;12903032;23;20020;-66
2023/03/02 00:52:50;;;;;;;16.65;7.85;;;;;;;4.23;48.16;100842.03;12903612;23;20066;-64
2023/03/02 00:57:55;;;;;;;12.63;7.47;;;;;;;4.21;47.75;100832.47;12903414;23;20086;-65
2023/03/02 01:02:57;;;;;;;18.38;7.82;;;;;;;4.17;48.34;100830.06;12903580;22;20020;-65
2023/03/02 01:07:58;;;;;;;17.00;7.57;;;;;;;4.15;48.24;100816.03;12901721;23;20032;-65
2023/03/02 01:13:00;;;;;;;15.80;7.25;;;;;;;4.14;48.49;100821.47;12903973;23;20031;-65
2023/03/02 01:18:01;;;;;;;14.65;7.65;;;;;;;4.12;48.16;100826.91;12901467;23;20078;-65
2023/03/02 01:23:03;;;;;;;16.30;7.35;;;;;;;4.18;48.44;100809.59;12909699;23;20043;-65
2023/03/02 01:28:04;;;;;;;17.98;8.27;;;;;;;4.11;48.17;100808.44;12903203;23;20093;-64
2023/03/02 01:33:06;;;;;;;17.23;8.15;;;;;;;4.11;48.42;100806.59;12901973;23;20020;-64
2023/03/02 01:38:07;;;;;;;15.70;7.53;;;;;;;4.07;48.54;100807.81;12900499;23;20086;-65
2023/03/02 01:43:12;;;;;;;15.50;6.85;;;;;;;3.98;48.53;100801.41;12903404;23;20027;-65
2023/03/02 01:48:19;;;;;;;19.10;7.18;;;;;;;3.98;48.89;100803.22;12900923;23;20020;-63
2023/03/02 01:53:23;;;;;;;13.52;7.25;;;;;;;4.01;48.61;100788.81;12902372;23;20051;-64
2023/03/02 01:58:27;;;;;;;13.65;6.82;;;;;;;3.98;48.41;100793.44;12901684;23;20453;-64
2023/03/02 02:03:29;;;;;;;13.13;6.90;;;;;;;3.98;48.44;100788.09;12901945;22;20016;-64
2023/03/02 02:08:31;;;;;;;18.42;7.63;;;;;;;3.92;49.03;100779.78;12901419;23;20353;-65
2023/03/02 02:13:32;;;;;;;17.08;6.78;;;;;;;3.88;48.71;100781.00;12902861;23;20050;-65
2023/03/02 02:18:38;;;;;;;13.95;6.97;;;;;;;3.83;49.13;100776.06;12900987;23;20345;-64
2023/03/02 02:24:15;;;;;;;14.02;7.05;;;;;;;3.83;49.11;100770.75;12907153;23;20062;-63
2023/03/02 02:29:29;;;;;;;15.82;7.13;;;;;;;3.78;49.16;100757.78;12901015;23;20074;-65
2023/03/02 02:34:40;;;;;;;16.30;6.95;;;;;;;3.78;49.01;100757.78;12901862;23;20028;-65
2023/03/02 02:39:46;;;;;;;13.07;6.03;;;;;;;3.80;49.33;100751.53;12899360;23;20028;-64
2023/03/02 02:44:49;;;;;;;18.80;7.33;;;;;;;3.75;49.04;100743.88;12873951;23;20066;-63
2023/03/02 02:49:55;;;;;;;18.13;7.15;;;;;;;3.69;49.59;100744.38;12900943;23;20078;-64
2023/03/02 02:54:58;;;;;;;12.98;5.95;;;;;;;3.72;49.24;100736.16;12902190;23;20031;-64
2023/03/02 03:00:00;;;;;;;14.85;6.47;;;;;;;3.77;49.41;100741.94;12899941;22;20019;-65
2023/03/02 03:05:01;;;;;;;14.13;7.22;;;;;;;3.80;49.47;100741.72;12914462;23;20039;-64
2023/03/02 03:10:13;;;;;;;13.90;6.60;;;;;;;3.80;49.97;100732.91;12873928;23;20032;-64
2023/03/02 03:15:15;;;;;;;12.75;6.05;;;;;;;3.81;49.95;100729.25;12902865;23;20476;-65
2023/03/02 03:20:18;;;;;;;13.13;6.25;;;;;;;3.82;49.77;100730.97;12899964;23;20016;-64
2023/03/02 03:25:25;;;;;;;13.63;6.13;;;;;;;3.84;50.04;100723.72;12900294;23;20024;-65
2023/03/02 03:30:26;;;;;;;16.88;6.03;;;;;;;3.83;49.91;100724.66;12899538;23;20020;-65
2023/03/02 03:35:28;;;;;;;13.43;5.95;;;;;;;3.84;49.70;100723.72;12872681;23;20078;-65
2023/03/02 03:40:33;;;;;;;15.02;6.30;;;;;;;3.82;49.92;100720.34;12899016;23;20019;-64
2023/03/02 03:45:34;;;;;;;10.77;5.40;;;;;;;3.82;49.71;100728.31;12900174;23;20046;-64
2023/03/02 03:50:36;;;;;;;12.88;6.15;;;;;;;3.80;49.46;100728.44;12898714;23;20020;-64
2023/03/02 03:55:37;;;;;;;14.10;6.70;;;;;;;3.77;49.98;100724.22;12901039;23;20027;-66
2023/03/02 04:00:39;;;;;;;14.80;6.05;;;;;;;3.75;49.80;100727.94;12898460;22;20020;-66
2023/03/02 04:05:41;;;;;;;13.85;7.15;;;;;;;3.73;49.60;100740.50;12899741;23;20020;-64
2023/03/02 04:10:42;;;;;;;13.90;6.50;;;;;;;3.70;49.65;100732.78;12899915;23;20032;-63
2023/03/02 04:15:44;;;;;;;14.90;6.63;;;;;;;3.66;49.94;100745.47;12898616;23;20456;-64
2023/03/02 04:20:47;;;;;;;12.57;5.57;;;;;;;3.67;49.80;100739.19;12898840;23;20081;-64
2023/03/02 04:25:48;;;;;;;14.57;5.82;;;;;;;3.68;50.14;100737.38;12899294;23;20074;-64
2023/03/02 04:30:50;;;;;;;14.95;6.53;;;;;;;3.66;50.03;100739.31;12898538;23;20024;-64
2023/03/02 04:35:53;;;;;;;10.23;5.88;;;;;;;3.64;49.88;100743.91;12898376;23;20024;-65
2023/03/02 04:40:56;;;;;;;13.45;6.65;;;;;;;3.69;49.47;100742.59;12898467;23;20034;-65
2023/03/02 04:45:58;;;;;;;12.07;5.55;;;;;;;3.75;49.37;100743.88;12899623;23;20082;-65
2023/03/02 04:50:59;;;;;;;13.10;5.90;;;;;;;3.70;49.92;100733.63;12871385;23;20613;-64
2023/03/02 04:56:00;;;;;;;13.30;6.43;;;;;;;3.67;49.48;100747.16;12898772;23;20016;-65
2023/03/02 05:01:02;;;;;;;13.32;5.95;;;;;;;3.64;50.04;100741.25;12899492;22;20024;-64
2023/03/02 05:06:04;;;;;;;11.75;6.35;;;;;;;3.62;49.86;100746.69;12901182;23;20024;-64
2023/03/02 05:11:06;;;;;;;12.55;5.95;;;;;;;3.61;50.11;100744.16;12902160;23;20031;-65
2023/03/02 05:16:08;;;;;;;14.13;6.32;;;;;;;3.58;49.78;100746.09;12903600;23;20482;-65
2023/03/02 05:21:10;;;;;;;12.10;5.10;;;;;;;3.60;49.96;100745.13;12901737;23;20028;-65
2023/03/02 05:26:12;;;;;;;16.35;5.45;;;;;;;3.60;50.16;100739.81;12908872;23;20019;-65
2023/03/02 05:31:20;;;;;;;16.15;6.63;;;;;;;3.59;50.14;100746.91;12902885;23;20024;-65
2023/03/02 05:36:21;;;;;;;12.65;5.53;;;;;;;3.54;50.09;100749.94;12901053;23;20048;-65
2023/03/02 05:41:23;;;;;;;11.95;6.10;;;;;;;3.53;50.20;100747.41;12874017;23;20019;-65
2023/03/02 05:46:25;;;;;;;11.68;5.57;;;;;;;3.54;49.95;100751.78;12902713;23;20035;-66
2023/03/02 05:51:26;;;;;;;15.40;5.65;;;;;;;3.47;50.31;100755.84;12896103;23;20028;-65
2023/03/02 05:56:28;;;;;;;13.43;5.57;;;;;;;3.44;50.05;100756.97;12897679;23;20035;-65
2023/03/02 06:01:29;;;;;;;11.60;5.03;;;;;;;3.43;49.84;100759.72;12895261;22;20082;-64
2023/03/02 06:06:31;;;;;;;11.20;5.00;;;;;;;3.43;50.03;100765.88;12900930;23;20028;-64
2023/03/02 06:11:34;;;;;;;12.77;5.72;;;;;;;3.47;50.09;100762.00;12891383;23;20461;-63
2023/03/02 06:16:36;;;;;;;11.90;5.32;;;;;;;3.51;50.47;100763.47;12892765;23;20070;-65
2023/03/02 06:21:37;;;;;;;12.75;5.47;;;;;;;3.60;50.34;100763.72;12896000;23;20710;-64
2023/03/02 06:26:38;;;;;;;12.88;5.38;;;;;;;3.67;50.04;100768.41;12869833;23;20012;-64
2023/03/02 06:31:40;;;;;;;13.77;5.43;;;;;;;3.63;49.95;100771.44;12897588;23;20020;-64
2023/03/02 06:36:41;;;;;;;10.75;4.97;;;;;;;3.69;50.06;100773.63;12896422;23;20032;-64
2023/03/02 06:41:44;;;;;;;10.40;5.13;;;;;;;3.76;50.15;100772.19;12898747;23;20028;-64
2023/03/02 06:46:45;;;;;;;13.13;5.53;;;;;;;3.83;49.77;100768.09;12899060;23;20023;-65
2023/03/02 06:51:47;;;;;;;10.35;4.93;;;;;;;3.88;49.82;100768.53;12899077;23;20028;-65
2023/03/02 06:56:48;;;;;;;13.55;5.93;;;;;;;3.97;49.57;100774.94;12898085;23;20081;-64
2023/03/02 07:01:50;;;;;;;12.98;5.95;;;;;;;4.03;49.66;100774.47;12896828;22;20024;-65
2023/03/02 07:06:51;;;;;;;18.52;5.10;;;;;;;4.07;49.06;100773.25;12900950;23;20024;-64
2023/03/02 07:11:53;;;;;;;14.30;5.90;;;;;;;4.13;49.19;100774.56;12898866;23;20035;-64
2023/03/02 07:16:56;;;;;;;14.23;5.82;;;;;;;4.20;49.08;100775.75;12897641;23;20020;-64
2023/03/02 07:21:57;;;;;;;15.68;5.30;;;;;;;4.34;49.01;100785.25;12899351;23;20755;-63
2023/03/02 07:26:59;;;;;;;16.77;5.10;;;;;;;4.44;48.99;100785.34;12897296;23;20024;-63
2023/03/02 07:32:00;;;;;;;14.90;5.45;;;;;;;4.53;48.54;100779.28;12896500;23;20028;-65
2023/03/02 07:37:02;;;;;;;13.10;6.32;;;;;;;4.67;48.34;100776.31;12905865;23;20479;-65
2023/03/02 07:42:05;;;;;;;12.73;5.82;;;;;;;4.84;48.40;100774.94;12900177;23;20024;-65
2023/03/02 07:47:07;;;;;;;12.35;6.35;;;;;;;4.92;48.28;100767.13;12899777;23;20082;-69
2023/03/02 07:52:08;;;;;;;11.52;6.20;;;;;;;5.10;47.94;100761.22;12899772;23;20360;-65
2023/03/02 07:57:10;;;;;;;11.52;5.75;;;;;;;5.18;48.04;100766.75;12869342;23;20028;-63
2023/03/02 08:02:13;;;;;;;15.80;6.63;;;;;;;5.33;47.79;100764.56;12895638;22;20335;-64
2023/03/02 08:07:15;;;;;;;10.10;5.32;;;;;;;5.52;47.60;100761.19;12898336;23;20557;-65
2023/03/02 08:12:16;;;;;;;10.30;5.40;;;;;;;5.66;47.66;100752.81;12898973;23;20024;-66
2023/03/02 08:17:17;;;;;;;12.73;6.32;;;;;;;5.81;47.54;100753.31;12896124;23;20016;-66
2023/03/02 08:22:19;;;;;;;13.70;6.22;;;;;;;5.91;47.09;100762.19;12901625;23;20043;-67
2023/03/02 08:27:21;;;;;;;14.75;6.80;;;;;;;6.07;46.88;100767.03;12897407;23;20020;-65
2023/03/02 08:32:22;;;;;;;20.13;7.28;;;;;;;6.29;47.27;100757.09;12897937;23;20023;-66
2023/03/02 08:37:23;;;;;;;15.38;6.82;;;;;;;6.40;46.29;100754.31;12898316;23;20480;-67
2023/03/02 08:42:25;;;;;;;14.32;6.03;;;;;;;6.54;46.46;100745.06;12900188;23;20020;-68
2023/03/02 08:47:27;;;;;;;13.77;6.80;;;;;;;6.67;46.59;100748.25;12910778;23;20669;-67
2023/03/02 08:52:28;;;;;;;12.48;6.15;;;;;;;6.80;45.81;100736.47;12891518;23;20031;-68
2023/03/02 08:57:30;;;;;;;11.85;6.07;;;;;;;6.93;46.47;100734.31;12918506;23;20028;-67
2023/03/02 09:02:31;;;;;;;13.45;6.22;;;;;;;7.01;46.31;100729.13;12889663;23;20020;-67
2023/03/02 09:07:33;;;;;;;13.48;6.35;;;;;;;7.09;45.23;100729.25;12891572;23;20453;-67
2023/03/02 09:12:34;;;;;;;12.40;6.22;;;;;;;7.32;45.43;100716.38;12853739;23;20020;-68
2023/03/02 09:17:35;;;;;;;14.15;5.88;;;;;;;7.59;45.70;100712.06;12902821;23;20035;-67
2023/03/02 09:22:37;;;;;;;14.27;6.72;;;;;;;7.78;45.04;100707.59;12902280;23;20035;-68
2023/03/02 09:27:38;;;;;;;14.02;6.78;;;;;;;8.01;44.55;100700.84;12902497;23;20547;-68
2023/03/02 09:32:40;;;;;;;16.35;8.00;;;;;;;8.14;44.56;100701.31;12902749;23;20027;-68
2023/03/02 09:37:41;;;;;;;17.95;7.15;;;;;;;8.23;44.78;100702.22;12900770;23;20028;-64
2023/03/02 09:42:54;;;;;;;13.68;6.78;;;;;;;8.34;43.92;100703.84;12901308;23;20044;-65
2023/03/02 09:48:12;;;;;;;15.80;7.15;;;;;;;8.43;44.54;100694.09;12901333;23;20016;-67
2023/03/02 09:53:27;;;;;;;12.05;6.05;;;;;;;8.52;43.94;100691.31;12900541;23;20021;-67
2023/03/02 09:58:36;;;;;;;15.68;7.03;;;;;;;8.68;43.37;100687.94;12901695;23;20020;-67
2023/03/02 10:03:49;;;;;;;13.93;6.57;;;;;;;8.83;42.96;100688.22;12900689;22;20020;-67
2023/03/02 10:08:50;;;;;;;13.57;6.85;;;;;;;8.98;42.91;100680.44;12873947;23;20485;-64
2023/03/02 10:14:04;;;;;;;12.70;6.80;;;;;;;9.12;43.20;100681.69;12901840;23;20287;-66
2023/03/02 10:19:28;;;;;;;15.45;7.07;;;;;;;9.22;42.67;100685.16;12901201;23;20028;-66
2023/03/02 10:24:49;;;;;;;14.15;8.23;;;;;;;9.47;42.27;100682.56;12902571;23;20724;-65
2023/03/02 10:30:05;;;;;;;12.98;6.13;;;;;;;9.67;41.83;100678.63;12900542;23;20016;-67
2023/03/02 10:35:20;;;;;;;12.15;6.65;;;;;;;9.77;42.08;100665.06;12900905;23;20311;-64
2023/03/02 10:40:46;;;;;;;12.63;6.53;;;;;;;9.96;41.72;100663.97;12899835;23;20105;-64
2023/03/02 10:45:58;;;;;;;12.13;6.20;;;;;;;10.06;41.74;100658.44;12901624;23;20020;-64
2023/03/02 10:50:59;;;;;;;11.77;6.45;;;;;;;10.26;41.22;100657.13;12869185;23;20107;-66
2023/03/02 10:56:04;;;;;;;14.25;6.53;;;;;;;10.35;40.96;100658.00;12892642;23;20423;-67
2023/03/02 11:01:15;;;;;;;14.73;7.40;;;;;;;10.42;40.81;100650.13;12901564;22;20020;-67
2023/03/02 11:06:19;;;;;;;10.45;5.78;;;;;;;10.61;40.59;100641.72;12899559;23;20026;-68
2023/03/02 11:11:23;;;;;;;16.95;6.93;;;;;;;10.77;40.26;100634.66;12900777;23;20105;-68
2023/03/02 11:16:30;;;;;;;13.98;7.05;;;;;;;10.89;40.21;100628.72;12902213;23;20024;-65
2023/03/02 11:21:42;;;;;;;12.32;6.10;;;;;;;11.06;39.83;100629.53;12900455;23;20031;-69
2023/03/02 11:26:50;;;;;;;9.73;5.78;;;;;;;11.16;39.82;100615.91;12900948;23;20020;-65
2023/03/02 11:31:57;;;;;;;15.70;6.45;;;;;;;11.27;39.69;100611.97;12900418;23;20032;-67
2023/03/02 11:37:15;;;;;;;14.45;6.40;;;;;;;11.39;39.17;100607.88;12899341;23;20344;-67
2023/03/02 11:42:25;;;;;;;15.27;6.70;;;;;;;11.54;39.16;100599.91;12893794;23;20042;-67
2023/03/02 11:47:30;;;;;;;9.98;5.20;;;;;;;11.71;38.72;100592.59;12899584;23;20024;-67
2023/03/02 11:52:37;;;;;;;11.23;5.75;;;;;;;11.88;39.04;100598.72;12896735;23;20028;-68
2023/03/02 11:57:47;;;;;;;11.35;5.70;;;;;;;12.08;38.56;100588.31;12898114;23;20099;-67
2023/03/02 12:03:02;;;;;;;12.85;5.57;;;;;;;12.35;38.08;100584.25;12898941;22;20634;-68
2023/03/02 12:08:07;;;;;;;10.27;5.63;;;;;;;12.52;38.02;100576.00;12900037;23;20106;-67
2023/03/02 12:13:23;;;;;;;11.70;6.47;;;;;;;12.84;37.78;100566.75;12894868;23;20111;-66
2023/03/02 12:18:33;;;;;;;13.65;6.40;;;;;;;12.92;36.94;100571.22;12876313;23;20048;-62
2023/03/02 12:23:40;;;;;;;12.68;6.68;;;;;;;13.24;36.48;100570.81;12903077;23;20031;-66
2023/03/02 12:28:42;;;;;;;8.27;5.13;;;;;;;13.50;36.13;100564.09;12902064;23;20334;-67
2023/03/02 12:33:48;;;;;;;12.55;6.10;;;;;;;13.65;35.89;100564.91;12899744;23;20040;-67
2023/03/02 12:39:25;;;;;;;10.07;5.70;;;;;;;13.53;35.99;100549.41;12900232;23;20032;-66
2023/03/02 12:44:54;;;;;;;13.32;6.22;;;;;;;13.71;35.47;100546.25;12900573;23;20480;-65
2023/03/02 12:49:59;;;;;;;13.35;6.40;;;;;;;13.98;34.38;100536.53;12900529;23;20028;-64
2023/03/02 12:55:17;;;;;;;11.10;5.00;;;;;;;14.45;33.75;100529.66;12899689;23;20020;-66
2023/03/02 13:00:22;;;;;;;8.00;5.22;;;;;;;14.61;33.26;100513.16;12899484;22;20020;-64
2023/03/02 13:05:26;;;;;;;13.57;5.22;;;;;;;14.46;33.21;100513.22;12900256;23;20020;-65
2023/03/02 13:10:40;;;;;;;11.25;5.10;;;;;;;14.47;32.97;100506.78;12903848;23;20024;-66
2023/03/02 13:15:54;;;;;;;11.50;4.90;;;;;;;14.62;32.62;100492.34;12899419;23;20408;-65
2023/03/02 13:20:55;;;;;;;10.45;5.32;;;;;;;14.63;32.18;100494.84;12899475;23;20020;-65
2023/03/02 13:25:59;;;;;;;12.05;4.65;;;;;;;14.94;32.13;100481.88;12900222;23;20586;-66
2023/03/02 13:31:19;;;;;;;10.15;5.95;;;;;;;15.03;31.70;100480.69;12900804;23;20024;-66
2023/03/02 13:36:33;;;;;;;9.45;5.57;;;;;;;15.29;31.30;100482.66;12903436;23;20024;-67
2023/03/02 13:41:36;;;;;;;10.55;6.80;;;;;;;15.55;31.42;100473.75;12919379;23;20043;-66
2023/03/02 13:46:37;;;;;;;9.18;5.20;;;;;;;15.67;31.41;100468.56;12889351;23;20036;-65
2023/03/02 13:51:46;;;;;;;11.10;5.50;;;;;;;15.73;31.40;100459.63;12914950;23;20028;-65
2023/03/02 13:56:49;;;;;;;11.50;6.13;;;;;;;15.83;31.05;100457.31;12911662;23;20039;-67
2023/03/02 14:01:51;;;;;;;10.82;5.40;;;;;;;15.95;30.96;100448.56;12886782;22;20523;-66
2023/03/02 14:06:53;;;;;;;11.02;5.93;;;;;;;16.09;30.93;100446.69;12915949;23;20075;-65
2023/03/02 14:11:56;;;;;;;11.65;6.25;;;;;;;16.08;31.13;100445.88;12863616;23;20090;-64
2023/03/02 14:16:58;;;;;;;12.00;5.38;;;;;;;15.96;31.12;100442.13;12914900;23;20074;-67
2023/03/02 14:21:59;;;;;;;10.23;5.70;;;;;;;16.04;31.16;100442.72;12888273;23;20028;-65
2023/03/02 14:27:01;;;;;;;11.70;6.20;;;;;;;16.17;31.10;100433.78;12889065;23;20028;-66
2023/03/02 14:32:03;;;;;;;14.23;7.07;;;;;;;16.17;31.03;100433.78;12914061;23;20024;-66
2023/03/02 14:37:10;;;;;;;12.25;6.47;;;;;;;16.08;30.99;100443.16;12927147;23;20024;-65
2023/03/02 14:42:14;;;;;;;14.57;5.53;;;;;;;16.02;31.09;100436.69;12874247;23;20330;-66
2023/03/02 14:47:18;;;;;;;12.43;6.32;;;;;;;16.01;30.97;100439.59;12902130;23;20019;-64
2023/03/02 14:52:30;;;;;;;12.25;6.90;;;;;;;16.00;30.87;100448.81;12900399;23;20099;-65
2023/03/02 14:57:35;;;;;;;14.93;6.68;;;;;;;15.96;31.01;100442.94;12899418;23;20027;-66
2023/03/02 15:02:36;;;;;;;14.70;6.13;;;;;;;15.93;31.24;100448.78;12900943;22;20066;-65
2023/03/02 15:07:38;;;;;;;9.18;6.07;;;;;;;16.09;31.17;100446.69;12902793;23;20030;-65
2023/03/02 15:12:39;;;;;;;11.23;6.03;;;;;;;16.48;30.88;100445.78;12901975;23;20086;-65
2023/03/02 15:17:40;;;;;;;11.65;6.85;;;;;;;17.11;29.73;100439.75;12899774;23;20046;-64
2023/03/02 15:22:42;;;;;;;13.52;6.45;;;;;;;16.76;29.90;100450.91;12900640;23;20032;-64
2023/03/02 15:27:44;;;;;;;12.80;6.65;;;;;;;16.40;30.23;100448.75;12900179;23;20020;-67
2023/03/02 15:32:45;;;;;;;9.45;5.78;;;;;;;16.47;29.97;100452.28;12900835;23;20032;-64
2023/03/02 15:37:46;;;;;;;12.63;7.15;;;;;;;16.02;30.60;100452.97;12899539;23;20020;-65
2023/03/02 15:42:48;;;;;;;8.35;5.50;;;;;;;16.10;30.82;100449.19;12900345;23;20035;-65
2023/03/02 15:47:49;;;;;;;10.63;5.18;;;;;;;16.19;30.36;100449.81;12898995;23;20468;-66
2023/03/02 15:52:50;;;;;;;10.02;5.25;;;;;;;15.93;30.47;100456.91;12900522;23;20035;-66
2023/03/02 15:57:52;;;;;;;6.95;4.10;;;;;;;15.55;30.95;100462.06;12898823;23;20349;-65
2023/03/02 16:02:53;;;;;;;7.30;4.47;;;;;;;15.32;30.94;100473.28;12898361;22;20027;-66
2023/03/02 16:07:55;;;;;;;6.38;4.22;;;;;;;15.00;31.43;100471.06;12897604;23;20026;-66
2023/03/02 16:13:04;;;;;;;6.60;4.03;;;;;;;14.87;31.34;100477.28;12899208;23;20353;-66
2023/03/02 16:18:09;;;;;;;9.40;4.97;;;;;;;14.81;31.46;100471.81;12899282;23;20767;-65
2023/03/02 16:23:10;;;;;;;6.80;3.22;;;;;;;14.54;31.33;100487.88;12900673;23;20505;-64
2023/03/02 16:28:13;;;;;;;5.85;3.40;;;;;;;14.18;31.17;100483.50;12898576;23;20028;-65
2023/03/02 16:33:16;;;;;;;8.73;3.90;;;;;;;13.93;31.31;100491.19;12896582;23;20035;-65
2023/03/02 16:38:18;;;;;;;7.63;3.35;;;;;;;13.62;31.60;100497.72;12897951;23;20024;-65
2023/03/02 16:43:21;;;;;;;5.47;3.10;;;;;;;13.33;31.50;100500.53;12900851;23;20051;-65
2023/03/02 16:48:23;;;;;;;7.85;2.53;;;;;;;13.14;31.62;100508.19;12897100;23;20020;-65
2023/03/02 16:53:24;;;;;;;7.28;3.50;;;;;;;12.86;31.46;100505.34;12900632;23;20070;-65
2023/03/02 16:58:26;;;;;;;9.32;4.18;;;;;;;12.67;31.72;100512.13;12897543;23;20028;-66
2023/03/02 17:03:27;;;;;;;9.10;4.70;;;;;;;12.46;32.37;100519.09;12899885;22;20536;-65
2023/03/02 17:08:28;;;;;;;13.73;3.40;;;;;;;12.27;32.38;100519.63;12906767;23;20020;-64
2023/03/02 17:13:30;;;;;;;10.65;4.80;;;;;;;12.00;32.90;100524.56;12904264;23;20023;-65
2023/03/02 17:18:32;;;;;;;14.52;5.28;;;;;;;11.79;33.17;100527.03;12898609;23;20019;-65
2023/03/02 17:23:35;;;;;;;5.57;3.08;;;;;;;11.60;32.66;100539.13;12901804;23;20070;-65
2023/03/02 17:28:38;;;;;;;6.55;2.58;;;;;;;11.41;32.70;100541.25;12903533;23;20059;-64
2023/03/02 17:33:39;;;;;;;7.47;3.33;;;;;;;11.27;33.02;100548.22;12900535;23;20484;-63
2023/03/02 17:38:40;;;;;;;5.97;2.85;;;;;;;11.13;32.90;100553.50;12900931;23;20020;-64
2023/03/02 17:43:42;;;;;;;6.18;2.97;;;;;;;10.90;32.88;100562.34;12904019;23;20020;-64
2023/03/02 17:48:46;;;;;;;5.00;2.33;;;;;;;10.79;32.98;100566.22;12902082;23;20024;-63
2023/03/02 17:53:49;;;;;;;7.90;2.80;;;;;;;10.65;32.83;100566.94;12902518;23;20055;-63
2023/03/02 17:58:57;;;;;;;5.45;2.88;;;;;;;10.49;32.95;100568.66;12902649;23;20024;-65
2023/03/02 18:03:58;;;;;;;8.02;2.65;;;;;;;10.40;32.67;100576.88;12875926;23;20020;-65
2023/03/02 18:09:00;;;;;;;6.13;2.70;;;;;;;10.25;32.33;100590.97;12902360;23;20031;-62
2023/03/02 18:14:01;;;;;;;5.00;2.50;;;;;;;10.11;32.44;100599.69;12902196;23;20050;-63
2023/03/02 18:19:02;;;;;;;4.53;2.40;;;;;;;10.03;32.13;100599.66;12902025;23;20348;-63
2023/03/02 18:24:04;;;;;;;7.60;3.40;;;;;;;9.94;32.10;100601.53;12902811;23;20027;-63
2023/03/02 18:29:06;;;;;;;7.45;3.45;;;;;;;9.91;32.05;100604.53;12900496;23;20480;-63
2023/03/02 18:34:07;;;;;;;7.53;3.40;;;;;;;9.87;32.08;100606.72;12903265;23;20404;-63
2023/03/02 18:39:08;;;;;;;7.55;2.67;;;;;;;9.72;32.17;100617.25;12900740;23;20329;-64
2023/03/02 18:44:10;;;;;;;8.68;3.83;;;;;;;9.62;32.14;100618.41;12900906;23;20020;-63
2023/03/02 18:49:11;;;;;;;5.57;3.00;;;;;;;9.53;32.13;100622.88;12903525;23;20032;-64
2023/03/02 18:54:12;;;;;;;6.70;3.50;;;;;;;9.51;32.11;100622.22;12899922;23;20027;-63
2023/03/02 18:59:16;;;;;;;7.82;3.67;;;;;;;9.45;32.69;100628.22;12885341;23;20015;-63
2023/03/02 19:04:18;;;;;;;9.32;2.83;;;;;;;9.37;32.70;100638.94;12889603;23;20026;-63
2023/03/02 19:09:21;;;;;;;8.48;3.38;;;;;;;9.26;32.63;100642.72;12912727;23;20027;-62
2023/03/02 19:14:23;;;;;;;6.45;2.70;;;;;;;9.14;32.55;100650.19;12912608;23;20019;-64
2023/03/02 19:19:24;;;;;;;7.32;3.08;;;;;;;9.11;32.97;100648.69;12883763;23;20024;-64
2023/03/02 19:24:26;;;;;;;5.45;2.63;;;;;;;9.08;33.01;100656.22;12910058;23;20023;-63
2023/03/02 19:29:27;;;;;;;6.53;2.97;;;;;;;9.02;32.77;100664.88;12908000;23;20051;-63
2023/03/02 19:34:29;;;;;;;6.60;3.00;;;;;;;8.94;32.88;100668.34;12883986;23;20031;-62
2023/03/02 19:39:30;;;;;;;5.30;2.85;;;;;;;8.90;33.04;100673.19;12880603;23;20020;-63
2023/03/02 19:44:32;;;;;;;7.78;4.53;;;;;;;8.86;33.25;100677.19;12909041;23;20027;-63
2023/03/02 19:49:35;;;;;;;8.05;3.75;;;;;;;8.81;33.81;100684.03;12882743;23;20027;-63
2023/03/02 19:54:36;;;;;;;7.88;2.95;;;;;;;8.73;33.53;100676.78;12909222;23;20086;-63
2023/03/02 19:59:39;;;;;;;5.68;2.53;;;;;;;8.69;34.03;100678.09;12912513;22;20042;-62
2023/03/02 20:04:42;;;;;;;9.20;4.82;;;;;;;8.63;34.53;100687.56;12909256;23;20487;-63
2023/03/02 20:09:44;;;;;;;6.00;3.08;;;;;;;8.62;34.59;100683.19;12908275;23;20020;-63
2023/03/02 20:14:48;;;;;;;7.22;2.97;;;;;;;8.51;35.15;100684.28;12907937;23;20028;-62
2023/03/02 20:19:49;;;;;;;7.10;3.20;;;;;;;8.49;34.98;100691.66;12906231;23;20028;-62
2023/03/02 20:24:51;;;;;;;6.60;3.53;;;;;;;8.46;36.05;100691.09;12907033;23;20792;-63
2023/03/02 20:29:52;;;;;;;8.23;3.45;;;;;;;8.38;35.79;100691.84;12878234;23;20020;-63
2023/03/02 20:34:54;;;;;;;11.68;3.78;;;;;;;8.30;36.56;100694.44;12881829;23;20024;-62
2023/03/02 20:39:56;;;;;;;7.75;3.78;;;;;;;8.19;36.49;100691.97;12860383;23;20544;-63
2023/03/02 20:44:58;;;;;;;9.52;4.93;;;;;;;8.07;37.67;100694.88;12915224;23;20054;-65
2023/03/02 20:50:00;;;;;;;10.05;4.22;;;;;;;8.01;37.69;100691.97;12887080;23;20032;-63
2023/03/02 20:55:03;;;;;;;10.15;4.57;;;;;;;8.00;38.10;100693.81;12887310;23;20048;-63
2023/03/02 21:00:13;;;;;;;9.55;4.47;;;;;;;7.96;38.33;100695.09;12889921;22;20023;-64
2023/03/02 21:05:16;;;;;;;11.40;4.95;;;;;;;7.89;38.76;100699.38;12917297;23;20518;-64
2023/03/02 21:10:25;;;;;;;7.65;4.28;;;;;;;7.79;38.59;100701.25;12896993;23;20032;-64
2023/03/02 21:15:27;;;;;;;9.48;5.45;;;;;;;7.73;38.92;100700.03;12873631;23;20030;-64
2023/03/02 21:20:31;;;;;;;10.70;4.70;;;;;;;7.63;39.23;100700.06;12897844;23;20012;-64
2023/03/02 21:25:32;;;;;;;9.55;5.13;;;;;;;7.64;39.61;100716.94;12901055;23;20027;-64
2023/03/02 21:30:34;;;;;;;10.20;5.28;;;;;;;7.57;39.75;100722.06;12901233;23;20024;-64
2023/03/02 21:35:35;;;;;;;8.43;5.10;;;;;;;7.50;40.04;100715.59;12900691;23;20024;-64
2023/03/02 21:40:41;;;;;;;10.57;5.57;;;;;;;7.40;40.46;100714.81;12901827;23;20035;-64
2023/03/02 21:45:43;;;;;;;19.33;9.23;;;;;;;7.26;40.20;100722.28;12902103;23;20098;-63
2023/03/02 21:50:44;;;;;;;12.70;6.25;;;;;;;7.22;40.73;100720.91;12900746;23;20023;-64
2023/03/02 21:55:46;;;;;;;9.70;5.18;;;;;;;7.14;41.28;100726.13;12901206;23;20028;-64
2023/03/02 22:00:48;;;;;;;11.27;5.47;;;;;;;7.06;40.93;100724.19;12899761;22;20028;-64
2023/03/02 22:05:49;;;;;;;10.50;5.25;;;;;;;7.02;41.80;100721.94;12904070;23;20024;-64
2023/03/02 22:10:51;;;;;;;11.18;5.43;;;;;;;7.01;42.03;100714.91;12900489;23;20042;-64
2023/03/02 22:16:12;;;;;;;9.80;5.18;;;;;;;6.91;41.89;100710.44;12901814;23;20086;-64
2023/03/02 22:21:33;;;;;;;12.25;6.13;;;;;;;6.82;42.17;100715.78;12899986;23;20043;-64
2023/03/02 22:26:46;;;;;;;11.80;6.07;;;;;;;6.72;42.45;100716.63;12900587;23;20016;-65
2023/03/02 22:31:49;;;;;;;14.10;6.82;;;;;;;6.64;43.69;100713.84;12902283;23;20024;-64
2023/03/02 22:36:57;;;;;;;12.80;6.60;;;;;;;6.58;43.81;100726.94;12902950;23;20062;-64
2023/03/02 22:42:10;;;;;;;;;;;;;;;6.57;43.49;100725.22;12902092;23;20024;-67
2023/03/02 22:47:18;;;;;;;14.30;7.50;;;;;;;6.53;44.20;100724.66;12901832;23;20260;-64
2023/03/02 22:52:22;;;;;;;16.73;6.90;;;;;;;6.51;44.37;100719.44;12902387;23;20062;-63
2023/03/02 22:57:33;;;;;;;13.40;6.82;;;;;;;6.53;44.84;100724.66;12900134;23;20027;-63
2023/03/02 23:02:40;;;;;;;13.43;7.00;;;;;;;6.53;44.84;100728.16;12900742;22;20020;-63
2023/03/02 23:07:41;;;;;;;11.40;6.97;;;;;;;6.53;44.97;100719.31;12902829;23;20020;-63
2023/03/02 23:12:43;;;;;;;15.93;8.23;;;;;;;6.51;45.14;100724.78;12900379;23;20020;-64
2023/03/02 23:17:45;;;;;;;15.73;7.80;;;;;;;6.45;45.54;100722.69;12900115;23;20027;-63